createdAt,value
2023-11-21T00:01:38.386Z,4.43
2023-11-21T00:04:08.910Z,3.53
2023-11-21T00:06:36.979Z,3.80
2023-11-21T00:09:04.458Z,4.07
2023-11-21T00:11:33.469Z,4.33
2023-11-21T00:14:04.411Z,3.40
2023-11-21T00:16:31.637Z,3.57
2023-11-21T00:19:03.694Z,3.80
2023-11-21T00:21:30.878Z,3.20
2023-11-21T00:24:00.763Z,3.43
2023-11-21T00:26:27.920Z,3.77
2023-11-21T00:29:02.327Z,4.00
2023-11-21T00:31:29.521Z,4.00
2023-11-21T00:33:56.758Z,4.77
2023-11-21T00:36:27.058Z,5.80
2023-11-21T00:38:59.228Z,6.30
2023-11-21T00:41:30.285Z,5.47
2023-11-21T00:44:00.711Z,5.87
2023-11-21T00:46:30.607Z,6.57
2023-11-21T00:49:00.537Z,6.97
2023-11-21T00:51:27.782Z,7.17
2023-11-21T00:53:54.929Z,7.40
2023-11-21T00:56:22.816Z,7.17
2023-11-21T00:58:53.355Z,7.33
2023-11-21T01:01:24.203Z,7.97
2023-11-21T01:03:51.918Z,7.30
2023-11-21T01:06:19.476Z,7.40
2023-11-21T01:08:46.671Z,8.37
2023-11-21T01:11:16.203Z,8.97
2023-11-21T01:13:43.755Z,9.10
2023-11-21T01:16:13.684Z,8.03
2023-11-21T01:18:43.045Z,9.37
2023-11-21T01:21:13.141Z,9.83
2023-11-21T01:23:40.160Z,10.00
2023-11-21T01:26:08.567Z,9.63
2023-11-21T01:28:37.943Z,9.90
2023-11-21T01:31:05.462Z,8.90
2023-11-21T01:33:34.960Z,8.97
2023-11-21T01:36:02.037Z,9.73
2023-11-21T01:38:31.885Z,9.13
2023-11-21T01:41:01.796Z,10.43
2023-11-21T01:43:32.555Z,10.60
2023-11-21T01:46:00.044Z,11.50
2023-11-21T01:48:30.559Z,11.80
2023-11-21T01:50:57.799Z,12.83
2023-11-21T01:53:31.373Z,11.77
2023-11-21T01:56:01.010Z,13.70
2023-11-21T01:58:33.565Z,12.80
2023-11-21T02:01:01.030Z,13.77
2023-11-21T02:03:28.346Z,13.57
2023-11-21T02:05:55.571Z,15.10
2023-11-21T02:08:22.613Z,13.70
2023-11-21T02:10:52.123Z,13.83
2023-11-21T02:13:21.799Z,12.47
2023-11-21T02:15:51.011Z,13.10
2023-11-21T02:18:20.814Z,11.57
2023-11-21T02:20:48.342Z,12.70
2023-11-21T02:23:19.324Z,11.87
2023-11-21T02:25:49.851Z,14.00
2023-11-21T02:28:26.687Z,11.90
2023-11-21T02:30:57.990Z,11.97
2023-11-21T02:33:25.188Z,11.83
2023-11-21T02:35:55.891Z,11.63
2023-11-21T02:38:23.199Z,11.00
2023-11-21T02:40:53.203Z,12.40
2023-11-21T02:43:20.325Z,10.27
2023-11-21T02:45:47.490Z,12.10
2023-11-21T02:48:16.957Z,11.50
2023-11-21T02:50:44.430Z,11.90
2023-11-21T02:53:11.866Z,10.30
2023-11-21T02:55:41.766Z,10.70
2023-11-21T02:58:09.537Z,10.33
2023-11-21T03:00:38.816Z,11.33
2023-11-21T03:03:06.000Z,11.00
2023-11-21T03:05:36.744Z,11.40
2023-11-21T03:08:03.948Z,12.97
2023-11-21T03:10:30.863Z,10.20
2023-11-21T03:12:59.031Z,11.00
2023-11-21T03:15:28.956Z,11.27
2023-11-21T03:17:56.204Z,10.20
2023-11-21T03:20:26.686Z,10.10
2023-11-21T03:22:55.465Z,11.17
2023-11-21T03:25:25.502Z,11.10
2023-11-21T03:27:55.142Z,10.73
2023-11-21T03:30:22.372Z,9.60
2023-11-21T03:32:49.662Z,10.43
2023-11-21T03:35:17.095Z,10.83
2023-11-21T03:37:45.143Z,10.07
2023-11-21T03:40:14.026Z,10.63
2023-11-21T03:42:41.638Z,10.47
2023-11-21T03:45:13.923Z,9.77
2023-11-21T03:47:45.714Z,9.77
2023-11-21T03:50:15.626Z,10.47
2023-11-21T03:52:45.606Z,10.40
2023-11-21T03:55:16.132Z,10.53
2023-11-21T03:57:45.885Z,10.70
2023-11-21T04:00:14.168Z,10.63
2023-11-21T04:02:41.948Z,11.57
2023-11-21T04:05:10.497Z,12.00
2023-11-21T04:07:39.676Z,10.10
2023-11-21T04:10:10.824Z,10.53
2023-11-21T04:12:40.587Z,10.40
2023-11-21T04:15:10.549Z,10.10
2023-11-21T04:17:37.992Z,10.00
2023-11-21T04:20:12.114Z,9.63
2023-11-21T04:22:46.056Z,11.07
2023-11-21T04:25:17.482Z,10.37
2023-11-21T04:27:46.109Z,10.30
2023-11-21T04:30:15.175Z,10.30
2023-11-21T04:32:45.542Z,10.43
2023-11-21T04:35:13.110Z,9.90
2023-11-21T04:37:42.516Z,10.90
2023-11-21T04:40:10.768Z,10.13
2023-11-21T04:42:38.117Z,9.90
2023-11-21T04:45:10.267Z,10.37
2023-11-21T04:47:38.373Z,9.60
2023-11-21T04:50:07.256Z,9.40
2023-11-21T04:52:34.516Z,10.10
2023-11-21T04:55:04.231Z,10.23
2023-11-21T04:57:31.324Z,10.87
2023-11-21T04:59:58.590Z,9.97
2023-11-21T05:02:34.152Z,9.97
2023-11-21T05:05:07.545Z,10.10
2023-11-21T05:07:38.348Z,10.80
2023-11-21T05:10:13.723Z,10.90
2023-11-21T05:12:44.149Z,10.80
2023-11-21T05:15:15.829Z,10.50
2023-11-21T05:17:44.279Z,11.10
2023-11-21T05:20:19.254Z,10.30
2023-11-21T05:22:46.814Z,11.17
2023-11-21T05:25:14.197Z,11.60
2023-11-21T05:27:41.349Z,12.07
2023-11-21T05:30:14.021Z,10.03
2023-11-21T05:32:45.289Z,10.40
2023-11-21T05:35:17.275Z,10.50
2023-11-21T05:37:48.569Z,10.60
2023-11-21T05:40:16.121Z,11.83
2023-11-21T05:42:43.261Z,10.33
2023-11-21T05:45:14.105Z,10.90
2023-11-21T05:47:48.704Z,10.90
2023-11-21T05:50:19.806Z,11.10
2023-11-21T05:52:48.606Z,10.30
2023-11-21T05:55:16.696Z,10.40
2023-11-21T05:57:45.193Z,11.20
2023-11-21T06:00:26.827Z,10.70
2023-11-21T06:02:55.978Z,10.90
2023-11-21T06:05:26.019Z,10.93
2023-11-21T06:07:55.924Z,10.50
2023-11-21T06:10:26.484Z,10.70
2023-11-21T06:12:54.644Z,10.47
2023-11-21T06:15:25.022Z,10.00
2023-11-21T06:17:56.178Z,9.87
2023-11-21T06:20:24.212Z,9.53
2023-11-21T06:22:52.928Z,11.13
2023-11-21T06:25:20.414Z,11.83
2023-11-21T06:27:49.001Z,10.97
2023-11-21T06:30:17.604Z,11.10
2023-11-21T06:32:51.556Z,10.83
2023-11-21T06:35:18.816Z,10.53
2023-11-21T06:37:50.773Z,9.83
2023-11-21T06:40:21.865Z,10.17
2023-11-21T06:42:49.699Z,11.20
2023-11-21T06:45:18.060Z,10.80
2023-11-21T06:47:45.937Z,11.23
2023-11-21T06:50:18.368Z,9.87
2023-11-21T06:52:48.298Z,10.00
2023-11-21T06:55:16.057Z,10.33
2023-11-21T06:57:46.096Z,10.53
2023-11-21T07:00:14.894Z,10.27
2023-11-21T07:02:42.246Z,10.80
2023-11-21T07:05:15.588Z,11.37
2023-11-21T07:07:43.025Z,10.33
2023-11-21T07:10:10.457Z,10.60
2023-11-21T07:12:41.454Z,10.60
2023-11-21T07:15:12.592Z,9.23
2023-11-21T07:17:42.624Z,10.50
2023-11-21T07:20:12.624Z,9.80
2023-11-21T07:22:41.840Z,10.43
2023-11-21T07:25:10.724Z,10.60
2023-11-21T07:27:40.323Z,11.07
2023-11-21T07:30:11.369Z,10.80
2023-11-21T07:32:41.050Z,11.13
2023-11-21T07:35:09.404Z,10.73
2023-11-21T07:37:38.920Z,10.90
2023-11-21T07:40:10.037Z,9.53
2023-11-21T07:42:40.006Z,10.00
2023-11-21T07:45:08.380Z,9.97
2023-11-21T07:47:35.818Z,10.80
2023-11-21T07:50:08.967Z,10.80
2023-11-21T07:52:36.387Z,10.77
2023-11-21T07:55:04.709Z,11.00
2023-11-21T07:57:38.939Z,10.20
2023-11-21T08:00:10.829Z,10.03
2023-11-21T08:02:37.914Z,11.10
2023-11-21T08:05:05.396Z,11.70
2023-11-21T08:07:34.744Z,10.87
2023-11-21T08:10:01.923Z,10.03
2023-11-21T08:12:29.079Z,10.83
2023-11-21T08:14:56.227Z,11.03
2023-11-21T08:17:24.639Z,11.17
2023-11-21T08:19:52.743Z,11.13
2023-11-21T08:22:19.987Z,11.10
2023-11-21T08:24:47.785Z,11.33
2023-11-21T08:27:17.016Z,10.80
2023-11-21T08:29:45.314Z,11.00
2023-11-21T08:32:12.398Z,12.10
2023-11-21T08:34:41.504Z,11.33
2023-11-21T08:37:08.522Z,10.93
2023-11-21T08:39:35.614Z,10.70
2023-11-21T08:42:03.752Z,10.37
2023-11-21T08:44:33.107Z,10.10
2023-11-21T08:47:07.389Z,11.00
2023-11-21T08:49:35.641Z,9.97
2023-11-21T08:52:06.298Z,10.10
2023-11-21T08:54:36.369Z,11.43
2023-11-21T08:57:06.292Z,10.37
2023-11-21T08:59:34.313Z,10.63
2023-11-21T09:02:01.505Z,10.10
2023-11-21T09:04:33.089Z,10.03
2023-11-21T09:07:01.337Z,9.80
2023-11-21T09:09:31.947Z,10.37
2023-11-21T09:12:01.780Z,10.30
2023-11-21T09:14:29.598Z,10.00
2023-11-21T09:16:57.809Z,9.57
2023-11-21T09:19:26.089Z,9.40
2023-11-21T09:21:53.323Z,9.20
2023-11-21T09:24:20.344Z,12.37
2023-11-21T09:26:47.503Z,11.60
2023-11-21T09:29:15.125Z,8.60
2023-11-21T09:31:43.530Z,9.57
2023-11-21T09:34:12.122Z,8.53
2023-11-21T09:36:42.159Z,8.23
2023-11-21T09:39:11.614Z,8.63
2023-11-21T09:42:24.132Z,8.50
2023-11-21T09:45:27.556Z,7.50
2023-11-21T09:47:59.371Z,7.93
2023-11-21T09:50:27.865Z,8.40
2023-11-21T09:53:22.828Z,8.10
2023-11-21T09:55:54.150Z,8.80
2023-11-21T09:58:24.554Z,8.00
2023-11-21T10:00:57.908Z,7.80
2023-11-21T10:03:25.600Z,8.07
2023-11-21T10:05:54.721Z,7.20
2023-11-21T10:08:25.170Z,7.50
2023-11-21T10:10:57.898Z,7.00
2023-11-21T10:13:25.693Z,6.87
2023-11-21T10:15:53.911Z,7.60
2023-11-21T10:18:26.081Z,6.83
2023-11-21T10:20:56.351Z,7.77
2023-11-21T10:23:25.092Z,7.27
2023-11-21T10:25:54.193Z,6.60
2023-11-21T10:28:23.983Z,6.77
2023-11-21T10:30:53.623Z,6.23
2023-11-21T10:33:31.257Z,7.00
2023-11-21T10:35:58.706Z,6.40
2023-11-21T10:38:29.784Z,6.67
2023-11-21T10:40:57.057Z,6.30
2023-11-21T10:43:28.277Z,6.27
2023-11-21T10:46:02.332Z,6.10
2023-11-21T10:48:29.474Z,6.40
2023-11-21T10:50:57.793Z,5.73
2023-11-21T10:53:25.198Z,5.70
2023-11-21T10:56:03.167Z,5.73
2023-11-21T10:58:33.717Z,5.40
2023-11-21T11:01:05.786Z,5.50
2023-11-21T11:03:34.705Z,5.73
2023-11-21T11:06:02.376Z,5.70
2023-11-21T11:08:29.602Z,6.37
2023-11-21T11:10:57.669Z,5.23
2023-11-21T11:13:28.190Z,5.93
2023-11-21T11:16:03.661Z,4.83
2023-11-21T11:18:31.340Z,5.23
2023-11-21T11:21:38.705Z,5.83
2023-11-21T11:24:37.268Z,6.93
2023-11-21T11:27:35.526Z,5.27
2023-11-21T11:30:08.794Z,5.30
2023-11-21T11:32:59.295Z,5.40
2023-11-21T11:35:44.117Z,5.17
2023-11-21T11:38:12.096Z,5.83
2023-11-21T11:40:46.338Z,8.93
2023-11-21T11:43:16.576Z,5.73
2023-11-21T11:45:45.528Z,5.23
2023-11-21T11:48:17.846Z,4.83
2023-11-21T11:51:12.556Z,4.77
2023-11-21T11:53:47.779Z,6.10
2023-11-21T11:56:33.026Z,5.17
2023-11-21T11:59:10.358Z,5.37
2023-11-21T12:01:37.729Z,5.37
2023-11-21T12:04:24.899Z,5.17
2023-11-21T12:06:56.209Z,4.83
2023-11-21T12:09:27.912Z,5.70
2023-11-21T12:11:57.731Z,4.77
2023-11-21T12:14:24.895Z,4.43
2023-11-21T12:16:53.056Z,5.00
2023-11-21T12:19:22.021Z,4.23
2023-11-21T12:21:51.745Z,4.37
2023-11-21T12:24:20.735Z,4.30
2023-11-21T12:26:47.821Z,5.30
2023-11-21T12:29:17.846Z,4.90
2023-11-21T12:31:51.082Z,4.63
2023-11-21T12:34:20.792Z,5.57
2023-11-21T12:36:50.509Z,4.20
2023-11-21T12:39:18.534Z,5.23
2023-11-21T12:41:46.814Z,4.37
2023-11-21T12:44:16.529Z,4.30
2023-11-21T12:46:46.308Z,4.50
2023-11-21T12:49:19.119Z,4.40
2023-11-21T12:51:47.774Z,5.10
2023-11-21T12:54:17.148Z,4.57
2023-11-21T12:56:50.065Z,4.50
2023-11-21T12:59:19.216Z,4.50
2023-11-21T13:01:52.423Z,4.33
2023-11-21T13:04:19.986Z,4.33
2023-11-21T13:06:49.962Z,4.70
2023-11-21T13:09:22.976Z,4.33
2023-11-21T13:12:04.703Z,4.90
2023-11-21T13:14:33.164Z,5.30
2023-11-21T13:17:00.405Z,5.23
2023-11-21T13:19:30.795Z,4.90
2023-11-21T13:21:59.934Z,4.93
2023-11-21T13:24:29.366Z,5.30
2023-11-21T13:26:59.214Z,5.40
2023-11-21T13:29:28.594Z,5.57
2023-11-21T13:31:56.606Z,5.60
2023-11-21T13:34:29.319Z,5.40
2023-11-21T13:37:04.323Z,4.90
2023-11-21T13:39:33.761Z,5.13
2023-11-21T13:42:04.832Z,5.73
2023-11-21T13:44:38.890Z,5.47
2023-11-21T13:47:07.495Z,5.67
2023-11-21T13:49:41.881Z,5.27
2023-11-21T13:52:09.123Z,5.70
2023-11-21T13:54:36.202Z,5.80
2023-11-21T13:57:04.432Z,6.03
2023-11-21T13:59:33.159Z,5.53
2023-11-21T14:02:17.825Z,5.40
2023-11-21T14:04:54.371Z,5.60
2023-11-21T14:07:34.254Z,11.10
2023-11-21T14:10:01.802Z,5.53
2023-11-21T14:12:37.574Z,5.57
2023-11-21T14:15:09.343Z,6.00
2023-11-21T14:17:40.924Z,5.10
2023-11-21T14:20:15.808Z,6.03
2023-11-21T14:22:43.550Z,4.97
2023-11-21T14:25:13.923Z,5.50
2023-11-21T14:27:41.193Z,5.00
2023-11-21T14:30:09.455Z,5.47
2023-11-21T14:32:39.468Z,6.10
2023-11-21T14:35:09.287Z,5.97
2023-11-21T14:37:36.854Z,6.57
2023-11-21T14:40:09.179Z,6.00
2023-11-21T14:42:40.102Z,4.97
2023-11-21T14:45:13.359Z,5.77
2023-11-21T14:47:48.178Z,5.57
2023-11-21T14:50:44.599Z,5.73
2023-11-21T14:53:16.798Z,5.50
2023-11-21T14:55:57.977Z,5.67
2023-11-21T14:58:28.497Z,5.60
2023-11-21T15:01:01.534Z,5.93
2023-11-21T15:03:34.217Z,6.20
2023-11-21T15:06:22.231Z,6.40
2023-11-21T15:09:09.201Z,7.10
2023-11-21T15:11:38.828Z,6.30
2023-11-21T15:14:09.477Z,6.53
2023-11-21T15:16:43.127Z,6.50
2023-11-21T15:19:19.339Z,6.50
2023-11-21T15:21:49.619Z,6.17
2023-11-21T15:24:19.188Z,5.63
2023-11-21T15:26:46.639Z,5.97
2023-11-21T15:29:15.169Z,5.17
2023-11-21T15:31:47.083Z,5.80
2023-11-21T15:34:16.121Z,5.23
2023-11-21T15:36:45.858Z,5.60
2023-11-21T15:39:13.064Z,5.07
2023-11-21T15:41:43.840Z,5.03
2023-11-21T15:44:12.614Z,5.20
2023-11-21T15:46:43.819Z,4.50
2023-11-21T15:49:17.845Z,4.97
2023-11-21T15:51:54.082Z,5.20
2023-11-21T15:54:23.113Z,5.00
2023-11-21T15:56:50.560Z,4.60
2023-11-21T15:59:20.783Z,4.57
2023-11-21T16:01:50.129Z,5.50
2023-11-21T16:04:18.568Z,5.03
2023-11-21T16:06:48.068Z,5.60
2023-11-21T16:09:32.405Z,4.80
2023-11-21T16:12:05.011Z,5.53
2023-11-21T16:14:40.227Z,5.20
2023-11-21T16:17:10.468Z,4.70
2023-11-21T16:19:40.159Z,4.00
2023-11-21T16:22:07.970Z,5.23
2023-11-21T16:24:35.353Z,12.10
2023-11-21T16:27:03.527Z,4.20
2023-11-21T16:29:34.704Z,5.20
2023-11-21T16:32:02.667Z,22.40
2023-11-21T16:34:30.541Z,5.73
2023-11-21T16:36:57.588Z,7.87
2023-11-21T16:39:24.843Z,7.00
2023-11-21T16:41:52.813Z,10.77
2023-11-21T16:44:21.997Z,5.10
2023-11-21T16:46:55.251Z,5.70
2023-11-21T16:49:25.037Z,10.10
2023-11-21T16:51:52.438Z,5.33
2023-11-21T16:54:22.247Z,4.33
2023-11-21T16:56:51.763Z,4.03
2023-11-21T16:59:19.724Z,4.60
2023-11-21T17:01:49.366Z,4.37
2023-11-21T17:04:16.750Z,22.50
2023-11-21T17:06:45.178Z,5.27
2023-11-21T17:09:15.542Z,4.30
2023-11-21T17:11:44.035Z,4.70
2023-11-21T17:14:14.748Z,3.90
2023-11-21T17:16:43.173Z,4.17
2023-11-21T17:19:10.321Z,3.80
2023-11-21T17:21:40.029Z,4.30
2023-11-21T17:24:10.179Z,4.37
2023-11-21T17:26:37.276Z,4.50
2023-11-21T17:29:05.497Z,5.30
2023-11-21T17:31:33.122Z,4.00
2023-11-21T17:34:00.273Z,4.17
2023-11-21T17:36:27.403Z,3.57
2023-11-21T17:38:55.220Z,4.37
2023-11-21T17:41:23.741Z,3.73
2023-11-21T17:43:52.426Z,3.30
2023-11-21T17:46:24.471Z,3.43
2023-11-21T17:48:55.524Z,2.87
2023-11-21T17:51:25.376Z,3.10
2023-11-21T17:54:01.861Z,2.70
2023-11-21T17:56:29.715Z,2.93
2023-11-21T17:58:57.929Z,2.07
2023-11-21T18:01:31.762Z,3.17
2023-11-21T18:04:01.763Z,3.23
2023-11-21T18:06:29.736Z,3.03
2023-11-21T18:09:00.227Z,3.00
2023-11-21T18:11:29.640Z,2.73
2023-11-21T18:13:56.947Z,2.83
2023-11-21T18:16:28.402Z,4.10
2023-11-21T18:18:55.648Z,3.40
2023-11-21T18:21:22.713Z,3.50
2023-11-21T18:23:52.557Z,3.27
2023-11-21T18:26:21.947Z,3.57
2023-11-21T18:28:49.176Z,3.33
2023-11-21T18:31:16.745Z,3.80
2023-11-21T18:33:46.306Z,4.37
2023-11-21T18:36:16.689Z,3.93
2023-11-21T18:38:43.932Z,4.23
2023-11-21T18:41:11.822Z,4.37
2023-11-21T18:43:44.870Z,3.40
2023-11-21T18:46:14.633Z,3.93
2023-11-21T18:48:43.631Z,3.97
2023-11-21T18:51:10.716Z,4.47
2023-11-21T18:53:41.076Z,4.50
2023-11-21T18:56:11.022Z,4.20
2023-11-21T18:58:38.249Z,6.67
2023-11-21T19:01:07.965Z,4.50
2023-11-21T19:03:38.059Z,4.00
2023-11-21T19:06:05.732Z,4.40
2023-11-21T19:08:36.171Z,3.90
2023-11-21T19:11:05.575Z,3.43
2023-11-21T19:13:32.805Z,4.10
2023-11-21T19:16:02.688Z,4.40
2023-11-21T19:18:31.600Z,6.90
2023-11-21T19:21:01.312Z,5.07
2023-11-21T19:23:29.167Z,3.63
2023-11-21T19:26:01.973Z,4.50
2023-11-21T19:28:29.615Z,4.00
2023-11-21T19:31:03.674Z,3.97
2023-11-21T19:33:36.036Z,3.70
2023-11-21T19:36:12.543Z,3.80
2023-11-21T19:38:47.373Z,3.77
2023-11-21T19:41:26.421Z,3.97
2023-11-21T19:44:00.062Z,4.13
2023-11-21T19:46:29.410Z,4.57
2023-11-21T19:49:05.542Z,3.87
2023-11-21T19:51:37.491Z,3.60
2023-11-21T19:54:14.415Z,3.73
2023-11-21T19:56:46.788Z,4.07
2023-11-21T19:59:15.997Z,3.87
2023-11-21T20:01:55.420Z,3.10
2023-11-21T20:04:24.948Z,3.83
2023-11-21T20:07:02.670Z,3.80
2023-11-21T20:09:36.181Z,4.13
2023-11-21T20:12:08.378Z,4.10
2023-11-21T20:14:38.498Z,4.03
2023-11-21T20:17:08.785Z,4.00
2023-11-21T20:19:37.548Z,4.53
2023-11-21T20:22:06.962Z,3.77
2023-11-21T20:24:36.813Z,3.80
2023-11-21T20:27:07.367Z,4.57
2023-11-21T20:29:35.542Z,3.97
2023-11-21T20:32:03.149Z,4.20
2023-11-21T20:34:30.024Z,4.40
2023-11-21T20:36:57.220Z,5.97
2023-11-21T20:39:24.289Z,4.73
2023-11-21T20:41:55.777Z,5.13
2023-11-21T20:44:26.813Z,4.37
2023-11-21T20:47:03.495Z,4.77
2023-11-21T20:49:41.728Z,4.17
2023-11-21T20:52:15.227Z,4.50
2023-11-21T20:54:45.801Z,4.13
2023-11-21T20:57:13.647Z,4.53
2023-11-21T20:59:41.092Z,4.40
2023-11-21T21:02:08.184Z,4.10
2023-11-21T21:04:35.511Z,3.80
2023-11-21T21:07:02.692Z,3.73
2023-11-21T21:09:33.718Z,3.10
2023-11-21T21:12:03.632Z,3.60
2023-11-21T21:14:33.666Z,3.50
2023-11-21T21:17:04.341Z,4.00
2023-11-21T21:19:34.461Z,4.10
2023-11-21T21:22:02.187Z,4.00
2023-11-21T21:24:29.412Z,4.47
2023-11-21T21:27:01.599Z,4.13
2023-11-21T21:29:33.588Z,3.93
2023-11-21T21:32:00.801Z,3.67
2023-11-21T21:34:27.977Z,4.77
2023-11-21T21:36:57.831Z,4.50
2023-11-21T21:39:24.880Z,4.90
2023-11-21T21:41:52.289Z,5.33
2023-11-21T21:44:19.423Z,5.30
2023-11-21T21:46:47.443Z,4.97
2023-11-21T21:49:16.490Z,5.20
2023-11-21T21:51:43.751Z,4.30
2023-11-21T21:54:13.102Z,4.20
2023-11-21T21:56:40.231Z,5.10
2023-11-21T21:59:09.533Z,4.37
2023-11-21T22:01:44.875Z,5.57
2023-11-21T22:04:15.050Z,4.93
2023-11-21T22:06:46.949Z,4.90
2023-11-21T22:09:14.259Z,3.80
2023-11-21T22:11:41.831Z,3.30
2023-11-21T22:14:12.839Z,4.17
2023-11-21T22:16:39.960Z,3.50
2023-11-21T22:19:07.361Z,3.80
2023-11-21T22:21:34.492Z,3.70
2023-11-21T22:24:01.673Z,3.80
2023-11-21T22:26:31.008Z,4.10
2023-11-21T22:28:58.668Z,3.37
2023-11-21T22:31:25.826Z,3.60
2023-11-21T22:33:53.017Z,3.97
2023-11-21T22:36:21.866Z,4.03
2023-11-21T22:38:49.236Z,3.77
2023-11-21T22:41:28.136Z,3.77
2023-11-21T22:43:55.837Z,4.00
2023-11-21T22:46:23.930Z,4.30
2023-11-21T22:48:54.212Z,4.17
2023-11-21T22:51:23.991Z,4.13
2023-11-21T22:53:54.625Z,3.90
2023-11-21T22:56:23.395Z,4.10
2023-11-21T22:58:51.040Z,3.70
2023-11-21T23:01:20.945Z,4.40
2023-11-21T23:03:48.628Z,3.93
2023-11-21T23:06:22.848Z,4.17
2023-11-21T23:08:52.211Z,4.60
2023-11-21T23:11:19.164Z,4.40
2023-11-21T23:13:46.551Z,5.07
2023-11-21T23:16:18.214Z,4.33
2023-11-21T23:18:52.042Z,3.97
2023-11-21T23:21:19.312Z,3.87
2023-11-21T23:23:51.788Z,4.30
2023-11-21T23:26:19.428Z,3.80
2023-11-21T23:28:46.681Z,3.57
2023-11-21T23:31:13.853Z,4.10
2023-11-21T23:33:41.462Z,3.73
2023-11-21T23:36:09.270Z,4.33
2023-11-21T23:38:36.919Z,4.33
2023-11-21T23:41:06.357Z,4.17
2023-11-21T23:43:33.692Z,4.23
2023-11-21T23:46:03.452Z,4.37
2023-11-21T23:48:30.682Z,4.43
2023-11-21T23:51:00.115Z,4.33
2023-11-21T23:53:29.691Z,4.63
2023-11-21T23:55:57.574Z,4.90
2023-11-21T23:58:24.876Z,4.27
